sensor_id;sensor_type;location;lat;lon;timestamp;P1;durP1;ratioP1;P2;durP2;ratioP2
43676;SDS011;29275;48.800;18.102;2022-10-16T00:01:13;5.38;;;3.85;;
43676;SDS011;29275;48.800;18.102;2022-10-16T00:04:17;6.00;;;3.97;;
43676;SDS011;29275;48.800;18.102;2022-10-16T00:07:20;4.47;;;2.85;;
43676;SDS011;29275;48.800;18.102;2022-10-16T00:10:22;7.32;;;4.32;;
43676;SDS011;29275;48.800;18.102;2022-10-16T00:13:25;9.60;;;3.35;;
43676;SDS011;29275;48.800;18.102;2022-10-16T00:16:27;5.28;;;3.35;;
43676;SDS011;29275;48.800;18.102;2022-10-16T00:19:30;6.78;;;3.70;;
43676;SDS011;29275;48.800;18.102;2022-10-16T00:22:33;4.68;;;3.42;;
43676;SDS011;29275;48.800;18.102;2022-10-16T00:25:35;7.22;;;3.33;;
43676;SDS011;29275;48.800;18.102;2022-10-16T00:28:47;6.15;;;3.33;;
43676;SDS011;29275;48.800;18.102;2022-10-16T00:31:51;5.93;;;3.35;;
43676;SDS011;29275;48.800;18.102;2022-10-16T00:34:53;7.88;;;3.65;;
43676;SDS011;29275;48.800;18.102;2022-10-16T00:37:56;6.07;;;3.60;;
43676;SDS011;29275;48.800;18.102;2022-10-16T00:40:58;6.80;;;3.88;;
43676;SDS011;29275;48.800;18.102;2022-10-16T00:44:02;7.43;;;4.10;;
43676;SDS011;29275;48.800;18.102;2022-10-16T00:50:33;6.13;;;3.47;;
43676;SDS011;29275;48.800;18.102;2022-10-16T00:53:35;6.72;;;3.83;;
43676;SDS011;29275;48.800;18.102;2022-10-16T00:56:39;6.38;;;3.53;;
43676;SDS011;29275;48.800;18.102;2022-10-16T00:59:41;6.13;;;3.40;;
43676;SDS011;29275;48.800;18.102;2022-10-16T01:02:43;9.48;;;3.75;;
43676;SDS011;29275;48.800;18.102;2022-10-16T01:05:47;6.57;;;4.18;;
43676;SDS011;29275;48.800;18.102;2022-10-16T01:12:30;6.15;;;3.75;;
43676;SDS011;29275;48.800;18.102;2022-10-16T01:15:50;5.72;;;3.40;;
43676;SDS011;29275;48.800;18.102;2022-10-16T01:19:02;5.28;;;3.70;;
43676;SDS011;29275;48.800;18.102;2022-10-16T01:22:16;4.40;;;3.00;;
43676;SDS011;29275;48.800;18.102;2022-10-16T01:25:21;7.75;;;3.20;;
43676;SDS011;29275;48.800;18.102;2022-10-16T01:38:03;13.65;;;3.42;;
43676;SDS011;29275;48.800;18.102;2022-10-16T01:41:19;6.65;;;2.95;;
43676;SDS011;29275;48.800;18.102;2022-10-16T01:44:26;7.28;;;3.33;;
43676;SDS011;29275;48.800;18.102;2022-10-16T01:47:31;8.88;;;3.45;;
43676;SDS011;29275;48.800;18.102;2022-10-16T01:50:35;6.38;;;3.33;;
43676;SDS011;29275;48.800;18.102;2022-10-16T01:53:40;6.05;;;3.45;;
43676;SDS011;29275;48.800;18.102;2022-10-16T01:56:44;5.78;;;3.30;;
43676;SDS011;29275;48.800;18.102;2022-10-16T01:59:50;12.32;;;3.80;;
43676;SDS011;29275;48.800;18.102;2022-10-16T02:02:54;7.73;;;3.13;;
43676;SDS011;29275;48.800;18.102;2022-10-16T02:05:57;7.55;;;3.08;;
43676;SDS011;29275;48.800;18.102;2022-10-16T02:09:00;7.18;;;3.88;;
43676;SDS011;29275;48.800;18.102;2022-10-16T02:12:04;6.90;;;3.28;;
43676;SDS011;29275;48.800;18.102;2022-10-16T02:15:14;7.55;;;3.67;;
43676;SDS011;29275;48.800;18.102;2022-10-16T02:18:16;6.32;;;3.20;;
43676;SDS011;29275;48.800;18.102;2022-10-16T02:21:53;5.88;;;3.30;;
43676;SDS011;29275;48.800;18.102;2022-10-16T02:24:59;11.25;;;4.07;;
43676;SDS011;29275;48.800;18.102;2022-10-16T02:31:22;5.03;;;3.30;;
43676;SDS011;29275;48.800;18.102;2022-10-16T02:34:30;8.80;;;4.05;;
43676;SDS011;29275;48.800;18.102;2022-10-16T02:37:33;8.10;;;4.47;;
43676;SDS011;29275;48.800;18.102;2022-10-16T02:40:36;5.90;;;3.15;;
43676;SDS011;29275;48.800;18.102;2022-10-16T02:43:38;10.60;;;3.05;;
43676;SDS011;29275;48.800;18.102;2022-10-16T02:46:40;5.00;;;3.55;;
43676;SDS011;29275;48.800;18.102;2022-10-16T02:49:43;5.00;;;3.42;;
43676;SDS011;29275;48.800;18.102;2022-10-16T02:52:45;6.15;;;3.08;;
43676;SDS011;29275;48.800;18.102;2022-10-16T02:55:47;4.32;;;2.80;;
43676;SDS011;29275;48.800;18.102;2022-10-16T02:58:49;5.90;;;3.33;;
43676;SDS011;29275;48.800;18.102;2022-10-16T03:01:51;4.63;;;3.33;;
43676;SDS011;29275;48.800;18.102;2022-10-16T03:04:53;7.50;;;4.03;;
43676;SDS011;29275;48.800;18.102;2022-10-16T03:07:54;6.97;;;3.40;;
43676;SDS011;29275;48.800;18.102;2022-10-16T03:10:57;6.13;;;4.22;;
43676;SDS011;29275;48.800;18.102;2022-10-16T03:14:02;6.90;;;3.63;;
43676;SDS011;29275;48.800;18.102;2022-10-16T03:17:04;4.93;;;3.15;;
43676;SDS011;29275;48.800;18.102;2022-10-16T03:20:07;4.75;;;3.22;;
43676;SDS011;29275;48.800;18.102;2022-10-16T03:23:09;5.55;;;3.03;;
43676;SDS011;29275;48.800;18.102;2022-10-16T03:26:11;6.57;;;2.83;;
43676;SDS011;29275;48.800;18.102;2022-10-16T03:29:13;14.18;;;3.58;;
43676;SDS011;29275;48.800;18.102;2022-10-16T03:32:15;5.93;;;3.50;;
43676;SDS011;29275;48.800;18.102;2022-10-16T03:35:18;10.20;;;3.35;;
43676;SDS011;29275;48.800;18.102;2022-10-16T03:38:20;4.35;;;2.83;;
43676;SDS011;29275;48.800;18.102;2022-10-16T03:41:22;7.50;;;3.70;;
43676;SDS011;29275;48.800;18.102;2022-10-16T03:44:24;5.43;;;3.55;;
43676;SDS011;29275;48.800;18.102;2022-10-16T03:47:26;6.30;;;3.50;;
43676;SDS011;29275;48.800;18.102;2022-10-16T03:50:29;6.30;;;3.65;;
43676;SDS011;29275;48.800;18.102;2022-10-16T03:53:31;4.25;;;3.25;;
43676;SDS011;29275;48.800;18.102;2022-10-16T03:56:33;9.57;;;4.75;;
43676;SDS011;29275;48.800;18.102;2022-10-16T03:59:36;6.75;;;4.03;;
43676;SDS011;29275;48.800;18.102;2022-10-16T04:02:38;6.25;;;3.45;;
43676;SDS011;29275;48.800;18.102;2022-10-16T04:05:41;6.90;;;4.32;;
43676;SDS011;29275;48.800;18.102;2022-10-16T04:08:43;8.57;;;5.15;;
43676;SDS011;29275;48.800;18.102;2022-10-16T04:11:45;8.57;;;4.82;;
43676;SDS011;29275;48.800;18.102;2022-10-16T04:14:47;6.57;;;3.65;;
43676;SDS011;29275;48.800;18.102;2022-10-16T04:17:49;6.30;;;3.88;;
43676;SDS011;29275;48.800;18.102;2022-10-16T04:20:51;5.82;;;4.10;;
43676;SDS011;29275;48.800;18.102;2022-10-16T04:23:53;5.85;;;4.18;;
43676;SDS011;29275;48.800;18.102;2022-10-16T04:26:55;6.95;;;4.00;;
43676;SDS011;29275;48.800;18.102;2022-10-16T04:29:59;8.52;;;5.03;;
43676;SDS011;29275;48.800;18.102;2022-10-16T04:33:01;8.07;;;4.47;;
43676;SDS011;29275;48.800;18.102;2022-10-16T04:36:03;8.85;;;4.80;;
43676;SDS011;29275;48.800;18.102;2022-10-16T04:39:05;7.32;;;4.82;;
43676;SDS011;29275;48.800;18.102;2022-10-16T04:42:08;13.32;;;5.95;;
43676;SDS011;29275;48.800;18.102;2022-10-16T04:45:10;9.82;;;5.55;;
43676;SDS011;29275;48.800;18.102;2022-10-16T04:48:17;8.23;;;5.30;;
43676;SDS011;29275;48.800;18.102;2022-10-16T04:51:20;7.30;;;4.55;;
43676;SDS011;29275;48.800;18.102;2022-10-16T04:54:22;6.85;;;4.55;;
43676;SDS011;29275;48.800;18.102;2022-10-16T04:57:24;8.75;;;4.35;;
43676;SDS011;29275;48.800;18.102;2022-10-16T05:00:26;5.70;;;4.18;;
43676;SDS011;29275;48.800;18.102;2022-10-16T05:03:29;7.25;;;3.22;;
43676;SDS011;29275;48.800;18.102;2022-10-16T05:06:32;6.55;;;3.95;;
43676;SDS011;29275;48.800;18.102;2022-10-16T05:09:34;6.20;;;3.72;;
43676;SDS011;29275;48.800;18.102;2022-10-16T05:12:38;6.45;;;3.72;;
43676;SDS011;29275;48.800;18.102;2022-10-16T05:15:40;6.88;;;4.35;;
43676;SDS011;29275;48.800;18.102;2022-10-16T05:18:42;5.72;;;3.95;;
43676;SDS011;29275;48.800;18.102;2022-10-16T05:21:44;6.63;;;3.70;;
43676;SDS011;29275;48.800;18.102;2022-10-16T05:24:46;7.20;;;4.20;;
43676;SDS011;29275;48.800;18.102;2022-10-16T05:27:49;9.38;;;4.55;;
43676;SDS011;29275;48.800;18.102;2022-10-16T05:30:51;6.63;;;3.20;;
43676;SDS011;29275;48.800;18.102;2022-10-16T05:33:57;10.00;;;3.38;;
43676;SDS011;29275;48.800;18.102;2022-10-16T05:37:02;6.47;;;4.00;;
43676;SDS011;29275;48.800;18.102;2022-10-16T05:40:05;6.55;;;3.90;;
43676;SDS011;29275;48.800;18.102;2022-10-16T05:43:08;5.85;;;3.63;;
43676;SDS011;29275;48.800;18.102;2022-10-16T05:46:11;5.97;;;3.08;;
43676;SDS011;29275;48.800;18.102;2022-10-16T05:49:13;5.35;;;3.25;;
43676;SDS011;29275;48.800;18.102;2022-10-16T05:52:15;5.90;;;3.65;;
43676;SDS011;29275;48.800;18.102;2022-10-16T05:55:24;6.93;;;3.90;;
43676;SDS011;29275;48.800;18.102;2022-10-16T05:58:33;9.52;;;4.32;;
43676;SDS011;29275;48.800;18.102;2022-10-16T06:01:37;10.10;;;4.38;;
43676;SDS011;29275;48.800;18.102;2022-10-16T06:04:40;9.70;;;4.97;;
43676;SDS011;29275;48.800;18.102;2022-10-16T06:07:42;12.25;;;5.05;;
43676;SDS011;29275;48.800;18.102;2022-10-16T06:10:46;7.90;;;5.20;;
43676;SDS011;29275;48.800;18.102;2022-10-16T06:13:49;9.02;;;5.55;;
43676;SDS011;29275;48.800;18.102;2022-10-16T06:16:53;8.57;;;4.90;;
43676;SDS011;29275;48.800;18.102;2022-10-16T06:19:55;8.57;;;4.97;;
43676;SDS011;29275;48.800;18.102;2022-10-16T06:22:57;7.80;;;4.57;;
43676;SDS011;29275;48.800;18.102;2022-10-16T06:26:04;12.52;;;6.95;;
43676;SDS011;29275;48.800;18.102;2022-10-16T06:29:07;9.85;;;6.00;;
43676;SDS011;29275;48.800;18.102;2022-10-16T06:32:10;12.68;;;7.53;;
43676;SDS011;29275;48.800;18.102;2022-10-16T06:35:12;11.43;;;6.10;;
43676;SDS011;29275;48.800;18.102;2022-10-16T06:38:16;14.20;;;7.22;;
43676;SDS011;29275;48.800;18.102;2022-10-16T06:41:19;15.45;;;9.23;;
43676;SDS011;29275;48.800;18.102;2022-10-16T06:44:23;11.48;;;6.85;;
43676;SDS011;29275;48.800;18.102;2022-10-16T06:47:25;9.38;;;6.10;;
43676;SDS011;29275;48.800;18.102;2022-10-16T06:50:28;9.73;;;6.13;;
43676;SDS011;29275;48.800;18.102;2022-10-16T06:53:31;7.13;;;4.80;;
43676;SDS011;29275;48.800;18.102;2022-10-16T06:56:50;11.18;;;6.47;;
43676;SDS011;29275;48.800;18.102;2022-10-16T06:59:54;11.75;;;7.35;;
43676;SDS011;29275;48.800;18.102;2022-10-16T07:02:56;10.27;;;6.38;;
43676;SDS011;29275;48.800;18.102;2022-10-16T07:06:02;10.38;;;6.25;;
43676;SDS011;29275;48.800;18.102;2022-10-16T07:09:06;7.90;;;5.60;;
43676;SDS011;29275;48.800;18.102;2022-10-16T07:12:11;9.13;;;5.35;;
43676;SDS011;29275;48.800;18.102;2022-10-16T07:15:14;9.40;;;4.80;;
43676;SDS011;29275;48.800;18.102;2022-10-16T07:18:17;11.15;;;7.40;;
43676;SDS011;29275;48.800;18.102;2022-10-16T07:21:20;17.45;;;6.88;;
43676;SDS011;29275;48.800;18.102;2022-10-16T07:24:26;11.33;;;6.57;;
43676;SDS011;29275;48.800;18.102;2022-10-16T07:27:29;10.93;;;6.65;;
43676;SDS011;29275;48.800;18.102;2022-10-16T07:30:34;10.48;;;7.20;;
43676;SDS011;29275;48.800;18.102;2022-10-16T07:33:37;9.25;;;5.85;;
43676;SDS011;29275;48.800;18.102;2022-10-16T07:36:40;9.80;;;5.50;;
43676;SDS011;29275;48.800;18.102;2022-10-16T07:39:48;10.13;;;6.22;;
43676;SDS011;29275;48.800;18.102;2022-10-16T07:42:50;9.13;;;6.00;;
43676;SDS011;29275;48.800;18.102;2022-10-16T07:45:53;13.35;;;7.43;;
43676;SDS011;29275;48.800;18.102;2022-10-16T07:49:00;9.15;;;5.18;;
43676;SDS011;29275;48.800;18.102;2022-10-16T07:52:03;7.93;;;5.20;;
43676;SDS011;29275;48.800;18.102;2022-10-16T07:55:07;7.95;;;4.75;;
43676;SDS011;29275;48.800;18.102;2022-10-16T07:58:10;9.60;;;5.18;;
43676;SDS011;29275;48.800;18.102;2022-10-16T08:01:13;9.80;;;5.90;;
43676;SDS011;29275;48.800;18.102;2022-10-16T08:04:17;8.05;;;5.97;;
43676;SDS011;29275;48.800;18.102;2022-10-16T08:07:19;11.45;;;5.68;;
43676;SDS011;29275;48.800;18.102;2022-10-16T08:10:22;11.07;;;6.18;;
43676;SDS011;29275;48.800;18.102;2022-10-16T08:13:27;6.90;;;4.20;;
43676;SDS011;29275;48.800;18.102;2022-10-16T08:16:33;7.67;;;5.53;;
43676;SDS011;29275;48.800;18.102;2022-10-16T08:19:35;9.10;;;5.38;;
43676;SDS011;29275;48.800;18.102;2022-10-16T08:22:37;8.43;;;5.32;;
43676;SDS011;29275;48.800;18.102;2022-10-16T08:25:41;9.70;;;5.72;;
43676;SDS011;29275;48.800;18.102;2022-10-16T08:28:43;7.53;;;5.25;;
43676;SDS011;29275;48.800;18.102;2022-10-16T08:31:45;12.30;;;5.50;;
43676;SDS011;29275;48.800;18.102;2022-10-16T08:34:51;8.07;;;4.60;;
43676;SDS011;29275;48.800;18.102;2022-10-16T08:37:53;13.75;;;5.75;;
43676;SDS011;29275;48.800;18.102;2022-10-16T08:40:57;9.57;;;5.65;;
43676;SDS011;29275;48.800;18.102;2022-10-16T08:51:05;9.70;;;5.70;;
43676;SDS011;29275;48.800;18.102;2022-10-16T08:54:21;12.23;;;6.00;;
43676;SDS011;29275;48.800;18.102;2022-10-16T08:57:32;8.68;;;4.70;;
43676;SDS011;29275;48.800;18.102;2022-10-16T09:00:34;9.82;;;4.45;;
43676;SDS011;29275;48.800;18.102;2022-10-16T09:06:46;10.20;;;5.78;;
43676;SDS011;29275;48.800;18.102;2022-10-16T09:16:51;8.43;;;4.70;;
43676;SDS011;29275;48.800;18.102;2022-10-16T09:23:25;10.52;;;5.30;;
43676;SDS011;29275;48.800;18.102;2022-10-16T09:26:38;10.18;;;4.85;;
43676;SDS011;29275;48.800;18.102;2022-10-16T09:30:12;9.90;;;5.32;;
43676;SDS011;29275;48.800;18.102;2022-10-16T09:33:17;8.23;;;5.80;;
43676;SDS011;29275;48.800;18.102;2022-10-16T09:36:25;14.65;;;5.55;;
43676;SDS011;29275;48.800;18.102;2022-10-16T09:39:28;6.70;;;4.75;;
43676;SDS011;29275;48.800;18.102;2022-10-16T09:42:31;9.25;;;4.72;;
43676;SDS011;29275;48.800;18.102;2022-10-16T09:45:36;6.85;;;4.60;;
43676;SDS011;29275;48.800;18.102;2022-10-16T09:48:43;9.15;;;5.53;;
43676;SDS011;29275;48.800;18.102;2022-10-16T09:51:46;8.73;;;5.05;;
43676;SDS011;29275;48.800;18.102;2022-10-16T09:54:53;15.30;;;4.57;;
43676;SDS011;29275;48.800;18.102;2022-10-16T09:57:56;10.30;;;5.53;;
43676;SDS011;29275;48.800;18.102;2022-10-16T10:00:59;9.32;;;5.28;;
43676;SDS011;29275;48.800;18.102;2022-10-16T10:04:02;9.52;;;5.25;;
43676;SDS011;29275;48.800;18.102;2022-10-16T10:07:05;7.75;;;5.13;;
43676;SDS011;29275;48.800;18.102;2022-10-16T10:10:19;9.07;;;5.25;;
43676;SDS011;29275;48.800;18.102;2022-10-16T10:13:33;7.60;;;4.90;;
43676;SDS011;29275;48.800;18.102;2022-10-16T10:16:36;8.85;;;5.65;;
43676;SDS011;29275;48.800;18.102;2022-10-16T10:19:39;9.25;;;4.75;;
43676;SDS011;29275;48.800;18.102;2022-10-16T10:22:48;6.78;;;4.55;;
43676;SDS011;29275;48.800;18.102;2022-10-16T10:26:05;11.27;;;4.93;;
43676;SDS011;29275;48.800;18.102;2022-10-16T10:32:36;8.60;;;5.43;;
43676;SDS011;29275;48.800;18.102;2022-10-16T10:42:25;9.65;;;5.10;;
43676;SDS011;29275;48.800;18.102;2022-10-16T10:45:43;11.05;;;5.72;;
43676;SDS011;29275;48.800;18.102;2022-10-16T10:59:07;10.02;;;5.47;;
43676;SDS011;29275;48.800;18.102;2022-10-16T11:02:22;15.80;;;5.18;;
43676;SDS011;29275;48.800;18.102;2022-10-16T11:09:25;8.65;;;5.50;;
43676;SDS011;29275;48.800;18.102;2022-10-16T11:12:40;8.80;;;5.32;;
43676;SDS011;29275;48.800;18.102;2022-10-16T11:15:44;10.82;;;6.75;;
43676;SDS011;29275;48.800;18.102;2022-10-16T11:28:31;8.95;;;5.50;;
43676;SDS011;29275;48.800;18.102;2022-10-16T11:37:54;9.13;;;5.22;;
43676;SDS011;29275;48.800;18.102;2022-10-16T11:41:10;9.50;;;5.53;;
43676;SDS011;29275;48.800;18.102;2022-10-16T11:48:12;10.98;;;5.72;;
43676;SDS011;29275;48.800;18.102;2022-10-16T11:51:31;9.30;;;6.15;;
43676;SDS011;29275;48.800;18.102;2022-10-16T11:57:52;8.95;;;6.00;;
43676;SDS011;29275;48.800;18.102;2022-10-16T12:01:18;10.85;;;5.85;;
43676;SDS011;29275;48.800;18.102;2022-10-16T12:04:42;14.15;;;6.85;;
43676;SDS011;29275;48.800;18.102;2022-10-16T12:08:33;7.88;;;5.60;;
43676;SDS011;29275;48.800;18.102;2022-10-16T12:17:35;9.35;;;6.25;;
43676;SDS011;29275;48.800;18.102;2022-10-16T12:20:42;11.95;;;6.63;;
43676;SDS011;29275;48.800;18.102;2022-10-16T12:26:51;13.80;;;5.72;;
43676;SDS011;29275;48.800;18.102;2022-10-16T12:29:55;9.30;;;5.03;;
43676;SDS011;29275;48.800;18.102;2022-10-16T12:33:04;9.43;;;5.40;;
43676;SDS011;29275;48.800;18.102;2022-10-16T12:36:42;9.27;;;6.15;;
43676;SDS011;29275;48.800;18.102;2022-10-16T12:39:38;6.95;;;5.32;;
43676;SDS011;29275;48.800;18.102;2022-10-16T12:42:41;10.57;;;5.68;;
43676;SDS011;29275;48.800;18.102;2022-10-16T12:45:44;8.27;;;5.55;;
43676;SDS011;29275;48.800;18.102;2022-10-16T12:48:47;10.70;;;6.25;;
43676;SDS011;29275;48.800;18.102;2022-10-16T12:52:34;11.75;;;5.35;;
43676;SDS011;29275;48.800;18.102;2022-10-16T12:55:33;9.65;;;6.65;;
43676;SDS011;29275;48.800;18.102;2022-10-16T12:58:59;13.43;;;7.28;;
43676;SDS011;29275;48.800;18.102;2022-10-16T13:18:25;10.53;;;5.63;;
43676;SDS011;29275;48.800;18.102;2022-10-16T13:21:38;10.65;;;6.30;;
43676;SDS011;29275;48.800;18.102;2022-10-16T13:28:06;13.38;;;6.15;;
43676;SDS011;29275;48.800;18.102;2022-10-16T13:31:22;8.68;;;5.28;;
43676;SDS011;29275;48.800;18.102;2022-10-16T13:34:25;12.68;;;6.47;;
43676;SDS011;29275;48.800;18.102;2022-10-16T13:37:29;8.95;;;5.22;;
43676;SDS011;29275;48.800;18.102;2022-10-16T13:40:31;8.30;;;5.72;;
43676;SDS011;29275;48.800;18.102;2022-10-16T13:46:38;8.60;;;5.53;;
43676;SDS011;29275;48.800;18.102;2022-10-16T13:49:41;10.55;;;5.65;;
43676;SDS011;29275;48.800;18.102;2022-10-16T13:52:43;10.40;;;5.15;;
43676;SDS011;29275;48.800;18.102;2022-10-16T13:55:46;13.02;;;5.97;;
43676;SDS011;29275;48.800;18.102;2022-10-16T13:59:01;13.90;;;5.70;;
43676;SDS011;29275;48.800;18.102;2022-10-16T14:02:15;10.73;;;6.95;;
43676;SDS011;29275;48.800;18.102;2022-10-16T14:05:22;7.93;;;5.70;;
43676;SDS011;29275;48.800;18.102;2022-10-16T14:08:24;11.05;;;5.78;;
43676;SDS011;29275;48.800;18.102;2022-10-16T14:11:27;15.05;;;6.85;;
43676;SDS011;29275;48.800;18.102;2022-10-16T14:14:33;13.93;;;8.20;;
43676;SDS011;29275;48.800;18.102;2022-10-16T14:17:38;8.95;;;5.47;;
43676;SDS011;29275;48.800;18.102;2022-10-16T14:20:45;8.02;;;5.38;;
43676;SDS011;29275;48.800;18.102;2022-10-16T14:23:47;7.93;;;4.85;;
43676;SDS011;29275;48.800;18.102;2022-10-16T14:26:49;6.20;;;4.57;;
43676;SDS011;29275;48.800;18.102;2022-10-16T14:30:03;7.35;;;5.55;;
43676;SDS011;29275;48.800;18.102;2022-10-16T14:33:24;8.60;;;5.47;;
43676;SDS011;29275;48.800;18.102;2022-10-16T14:36:31;6.95;;;4.78;;
43676;SDS011;29275;48.800;18.102;2022-10-16T14:39:35;10.32;;;4.93;;
43676;SDS011;29275;48.800;18.102;2022-10-16T14:42:37;7.65;;;5.30;;
43676;SDS011;29275;48.800;18.102;2022-10-16T14:45:40;11.07;;;6.50;;
43676;SDS011;29275;48.800;18.102;2022-10-16T14:48:47;8.63;;;5.57;;
43676;SDS011;29275;48.800;18.102;2022-10-16T14:51:51;9.93;;;6.60;;
43676;SDS011;29275;48.800;18.102;2022-10-16T14:54:54;11.18;;;6.60;;
43676;SDS011;29275;48.800;18.102;2022-10-16T14:57:58;11.73;;;6.43;;
43676;SDS011;29275;48.800;18.102;2022-10-16T15:01:01;8.82;;;5.57;;
43676;SDS011;29275;48.800;18.102;2022-10-16T15:04:03;7.57;;;4.63;;
43676;SDS011;29275;48.800;18.102;2022-10-16T15:07:07;8.57;;;5.57;;
43676;SDS011;29275;48.800;18.102;2022-10-16T15:10:09;8.25;;;4.50;;
43676;SDS011;29275;48.800;18.102;2022-10-16T15:13:15;11.35;;;6.40;;
43676;SDS011;29275;48.800;18.102;2022-10-16T15:16:17;9.45;;;5.22;;
43676;SDS011;29275;48.800;18.102;2022-10-16T15:19:19;7.88;;;4.85;;
43676;SDS011;29275;48.800;18.102;2022-10-16T15:22:21;8.82;;;5.22;;
43676;SDS011;29275;48.800;18.102;2022-10-16T15:28:34;8.65;;;5.22;;
43676;SDS011;29275;48.800;18.102;2022-10-16T15:31:37;8.07;;;4.47;;
43676;SDS011;29275;48.800;18.102;2022-10-16T15:34:40;12.55;;;5.18;;
43676;SDS011;29275;48.800;18.102;2022-10-16T15:37:42;11.90;;;4.20;;
43676;SDS011;29275;48.800;18.102;2022-10-16T15:40:44;10.32;;;4.65;;
43676;SDS011;29275;48.800;18.102;2022-10-16T15:43:50;8.63;;;4.13;;
43676;SDS011;29275;48.800;18.102;2022-10-16T15:46:54;7.72;;;5.18;;
43676;SDS011;29275;48.800;18.102;2022-10-16T15:49:56;7.75;;;4.68;;
43676;SDS011;29275;48.800;18.102;2022-10-16T15:52:58;10.00;;;5.28;;
43676;SDS011;29275;48.800;18.102;2022-10-16T15:56:04;7.22;;;4.60;;
43676;SDS011;29275;48.800;18.102;2022-10-16T15:59:07;9.48;;;5.85;;
43676;SDS011;29275;48.800;18.102;2022-10-16T16:02:09;7.93;;;4.45;;
43676;SDS011;29275;48.800;18.102;2022-10-16T16:05:13;8.73;;;4.43;;
43676;SDS011;29275;48.800;18.102;2022-10-16T16:08:15;12.60;;;6.05;;
43676;SDS011;29275;48.800;18.102;2022-10-16T16:11:19;18.52;;;9.00;;
43676;SDS011;29275;48.800;18.102;2022-10-16T16:14:22;13.32;;;7.57;;
43676;SDS011;29275;48.800;18.102;2022-10-16T16:17:26;12.48;;;6.45;;
43676;SDS011;29275;48.800;18.102;2022-10-16T16:20:28;16.17;;;6.43;;
43676;SDS011;29275;48.800;18.102;2022-10-16T16:23:30;8.77;;;4.45;;
43676;SDS011;29275;48.800;18.102;2022-10-16T16:26:35;8.18;;;4.65;;
43676;SDS011;29275;48.800;18.102;2022-10-16T16:29:41;7.77;;;4.37;;
43676;SDS011;29275;48.800;18.102;2022-10-16T16:32:43;12.52;;;6.35;;
43676;SDS011;29275;48.800;18.102;2022-10-16T16:35:45;11.05;;;4.60;;
43676;SDS011;29275;48.800;18.102;2022-10-16T16:38:48;8.55;;;4.97;;
43676;SDS011;29275;48.800;18.102;2022-10-16T16:41:51;8.52;;;4.93;;
43676;SDS011;29275;48.800;18.102;2022-10-16T16:44:53;8.45;;;5.53;;
43676;SDS011;29275;48.800;18.102;2022-10-16T16:47:56;10.10;;;4.80;;
43676;SDS011;29275;48.800;18.102;2022-10-16T16:51:10;7.57;;;4.22;;
43676;SDS011;29275;48.800;18.102;2022-10-16T16:54:18;5.78;;;3.97;;
43676;SDS011;29275;48.800;18.102;2022-10-16T16:57:21;7.78;;;4.78;;
43676;SDS011;29275;48.800;18.102;2022-10-16T17:00:26;8.40;;;4.07;;
43676;SDS011;29275;48.800;18.102;2022-10-16T17:03:30;21.27;;;8.70;;
43676;SDS011;29275;48.800;18.102;2022-10-16T17:06:35;16.98;;;7.50;;
43676;SDS011;29275;48.800;18.102;2022-10-16T17:09:38;23.48;;;9.10;;
43676;SDS011;29275;48.800;18.102;2022-10-16T17:12:40;10.93;;;6.15;;
43676;SDS011;29275;48.800;18.102;2022-10-16T17:15:46;8.55;;;4.47;;
43676;SDS011;29275;48.800;18.102;2022-10-16T17:18:49;12.82;;;4.57;;
43676;SDS011;29275;48.800;18.102;2022-10-16T17:21:51;18.60;;;6.68;;
43676;SDS011;29275;48.800;18.102;2022-10-16T17:24:55;14.00;;;8.00;;
43676;SDS011;29275;48.800;18.102;2022-10-16T17:27:57;8.30;;;4.47;;
43676;SDS011;29275;48.800;18.102;2022-10-16T17:31:16;7.72;;;4.40;;
43676;SDS011;29275;48.800;18.102;2022-10-16T17:34:23;7.85;;;3.92;;
43676;SDS011;29275;48.800;18.102;2022-10-16T17:37:27;7.65;;;4.00;;
43676;SDS011;29275;48.800;18.102;2022-10-16T17:40:29;5.15;;;3.60;;
43676;SDS011;29275;48.800;18.102;2022-10-16T17:43:31;8.73;;;5.30;;
43676;SDS011;29275;48.800;18.102;2022-10-16T17:46:34;12.43;;;9.52;;
43676;SDS011;29275;48.800;18.102;2022-10-16T17:49:41;10.57;;;8.45;;
43676;SDS011;29275;48.800;18.102;2022-10-16T17:52:44;9.55;;;6.38;;
43676;SDS011;29275;48.800;18.102;2022-10-16T17:55:47;11.25;;;5.47;;
43676;SDS011;29275;48.800;18.102;2022-10-16T17:58:50;13.30;;;6.05;;
43676;SDS011;29275;48.800;18.102;2022-10-16T18:01:54;6.90;;;4.13;;
43676;SDS011;29275;48.800;18.102;2022-10-16T18:04:56;6.40;;;4.07;;
43676;SDS011;29275;48.800;18.102;2022-10-16T18:07:59;6.75;;;3.53;;
43676;SDS011;29275;48.800;18.102;2022-10-16T18:11:02;9.15;;;6.85;;
43676;SDS011;29275;48.800;18.102;2022-10-16T18:14:10;12.18;;;5.85;;
43676;SDS011;29275;48.800;18.102;2022-10-16T18:17:18;13.93;;;5.97;;
43676;SDS011;29275;48.800;18.102;2022-10-16T18:20:21;7.85;;;5.43;;
43676;SDS011;29275;48.800;18.102;2022-10-16T18:23:23;9.18;;;3.80;;
43676;SDS011;29275;48.800;18.102;2022-10-16T18:26:26;15.77;;;7.82;;
43676;SDS011;29275;48.800;18.102;2022-10-16T18:29:29;28.05;;;14.30;;
43676;SDS011;29275;48.800;18.102;2022-10-16T18:32:31;12.68;;;8.15;;
43676;SDS011;29275;48.800;18.102;2022-10-16T18:35:36;17.08;;;12.88;;
43676;SDS011;29275;48.800;18.102;2022-10-16T18:38:39;11.50;;;8.05;;
43676;SDS011;29275;48.800;18.102;2022-10-16T18:41:43;11.90;;;7.95;;
43676;SDS011;29275;48.800;18.102;2022-10-16T18:44:45;8.73;;;5.47;;
43676;SDS011;29275;48.800;18.102;2022-10-16T18:47:53;7.30;;;5.47;;
43676;SDS011;29275;48.800;18.102;2022-10-16T18:54:30;4.25;;;2.78;;
43676;SDS011;29275;48.800;18.102;2022-10-16T18:57:33;6.55;;;3.55;;
43676;SDS011;29275;48.800;18.102;2022-10-16T19:00:36;39.58;;;21.95;;
43676;SDS011;29275;48.800;18.102;2022-10-16T19:03:38;30.60;;;18.13;;
43676;SDS011;29275;48.800;18.102;2022-10-16T19:06:43;27.88;;;16.02;;
43676;SDS011;29275;48.800;18.102;2022-10-16T19:09:47;12.82;;;8.43;;
43676;SDS011;29275;48.800;18.102;2022-10-16T19:12:50;6.20;;;4.68;;
43676;SDS011;29275;48.800;18.102;2022-10-16T19:15:53;6.80;;;4.15;;
43676;SDS011;29275;48.800;18.102;2022-10-16T19:19:00;6.80;;;3.45;;
43676;SDS011;29275;48.800;18.102;2022-10-16T19:22:04;7.03;;;4.28;;
43676;SDS011;29275;48.800;18.102;2022-10-16T19:25:14;5.40;;;4.15;;
43676;SDS011;29275;48.800;18.102;2022-10-16T19:28:17;8.02;;;5.15;;
43676;SDS011;29275;48.800;18.102;2022-10-16T19:31:20;5.88;;;3.17;;
43676;SDS011;29275;48.800;18.102;2022-10-16T19:34:23;6.18;;;3.67;;
43676;SDS011;29275;48.800;18.102;2022-10-16T19:37:27;8.38;;;3.75;;
43676;SDS011;29275;48.800;18.102;2022-10-16T19:40:29;7.55;;;4.07;;
43676;SDS011;29275;48.800;18.102;2022-10-16T19:43:32;6.05;;;3.97;;
43676;SDS011;29275;48.800;18.102;2022-10-16T19:46:34;7.40;;;3.67;;
43676;SDS011;29275;48.800;18.102;2022-10-16T19:49:37;5.22;;;2.78;;
43676;SDS011;29275;48.800;18.102;2022-10-16T19:52:39;5.43;;;2.40;;
43676;SDS011;29275;48.800;18.102;2022-10-16T19:55:42;4.78;;;2.67;;
43676;SDS011;29275;48.800;18.102;2022-10-16T19:58:45;3.95;;;2.17;;
43676;SDS011;29275;48.800;18.102;2022-10-16T20:01:48;6.40;;;3.47;;
43676;SDS011;29275;48.800;18.102;2022-10-16T20:04:51;6.47;;;3.67;;
43676;SDS011;29275;48.800;18.102;2022-10-16T20:07:54;5.65;;;2.97;;
43676;SDS011;29275;48.800;18.102;2022-10-16T20:10:56;6.35;;;3.40;;
43676;SDS011;29275;48.800;18.102;2022-10-16T20:13:59;4.18;;;2.72;;
43676;SDS011;29275;48.800;18.102;2022-10-16T20:17:03;4.43;;;2.70;;
43676;SDS011;29275;48.800;18.102;2022-10-16T20:20:06;5.43;;;3.53;;